sensor_id;sensor_type;location;lat;lon;timestamp;temperature;humidity
25302;DHT22;13243;50.888;4.724;2022-12-07T00:01:48;5.60;99.90
25302;DHT22;13243;50.888;4.724;2022-12-07T00:06:53;5.60;99.90
25302;DHT22;13243;50.888;4.724;2022-12-07T00:11:55;5.50;99.90
25302;DHT22;13243;50.888;4.724;2022-12-07T00:16:57;5.50;99.90
25302;DHT22;13243;50.888;4.724;2022-12-07T00:21:58;5.40;99.90
25302;DHT22;13243;50.888;4.724;2022-12-07T00:27:00;5.40;99.90
25302;DHT22;13243;50.888;4.724;2022-12-07T00:32:03;5.40;99.90
25302;DHT22;13243;50.888;4.724;2022-12-07T00:37:05;5.30;99.90
25302;DHT22;13243;50.888;4.724;2022-12-07T00:42:06;5.30;99.90
25302;DHT22;13243;50.888;4.724;2022-12-07T00:47:08;5.30;99.90
25302;DHT22;13243;50.888;4.724;2022-12-07T00:52:10;5.30;99.90
25302;DHT22;13243;50.888;4.724;2022-12-07T00:57:12;5.30;99.90
25302;DHT22;13243;50.888;4.724;2022-12-07T01:02:13;5.30;99.90
25302;DHT22;13243;50.888;4.724;2022-12-07T01:07:15;5.20;99.90
25302;DHT22;13243;50.888;4.724;2022-12-07T01:12:17;5.10;99.90
25302;DHT22;13243;50.888;4.724;2022-12-07T01:17:19;5.10;99.90
25302;DHT22;13243;50.888;4.724;2022-12-07T01:22:21;5.10;99.90
25302;DHT22;13243;50.888;4.724;2022-12-07T01:27:23;5.10;99.90
25302;DHT22;13243;50.888;4.724;2022-12-07T01:32:24;5.10;99.90
25302;DHT22;13243;50.888;4.724;2022-12-07T01:37:26;5.00;99.90
25302;DHT22;13243;50.888;4.724;2022-12-07T01:42:28;5.00;99.90
25302;DHT22;13243;50.888;4.724;2022-12-07T01:47:30;5.10;99.90
25302;DHT22;13243;50.888;4.724;2022-12-07T01:52:33;5.10;99.90
25302;DHT22;13243;50.888;4.724;2022-12-07T01:57:40;5.10;99.90
25302;DHT22;13243;50.888;4.724;2022-12-07T02:08:07;5.10;99.90
25302;DHT22;13243;50.888;4.724;2022-12-07T02:13:14;5.00;99.90
25302;DHT22;13243;50.888;4.724;2022-12-07T02:24:17;5.00;99.90
25302;DHT22;13243;50.888;4.724;2022-12-07T02:29:27;5.00;99.90
25302;DHT22;13243;50.888;4.724;2022-12-07T02:34:44;5.00;99.90
25302;DHT22;13243;50.888;4.724;2022-12-07T02:39:54;5.00;99.90
25302;DHT22;13243;50.888;4.724;2022-12-07T02:44:57;4.90;99.90
25302;DHT22;13243;50.888;4.724;2022-12-07T02:50:04;4.90;99.90
25302;DHT22;13243;50.888;4.724;2022-12-07T02:55:07;5.00;99.90
25302;DHT22;13243;50.888;4.724;2022-12-07T03:00:14;4.90;99.90
25302;DHT22;13243;50.888;4.724;2022-12-07T03:10:40;5.00;99.90
25302;DHT22;13243;50.888;4.724;2022-12-07T03:15:58;5.00;99.90
25302;DHT22;13243;50.888;4.724;2022-12-07T03:21:08;4.90;99.90
25302;DHT22;13243;50.888;4.724;2022-12-07T03:26:13;4.90;99.90
25302;DHT22;13243;50.888;4.724;2022-12-07T03:31:26;5.00;99.90
25302;DHT22;13243;50.888;4.724;2022-12-07T03:36:57;5.00;99.90
25302;DHT22;13243;50.888;4.724;2022-12-07T03:42:04;4.90;99.90
25302;DHT22;13243;50.888;4.724;2022-12-07T03:52:41;4.90;99.90
25302;DHT22;13243;50.888;4.724;2022-12-07T03:57:45;4.90;99.90
25302;DHT22;13243;50.888;4.724;2022-12-07T04:02:52;4.90;99.90
25302;DHT22;13243;50.888;4.724;2022-12-07T04:07:54;4.80;99.90
25302;DHT22;13243;50.888;4.724;2022-12-07T04:12:56;4.80;99.90
25302;DHT22;13243;50.888;4.724;2022-12-07T04:17:58;4.90;99.90
25302;DHT22;13243;50.888;4.724;2022-12-07T04:22:59;4.80;99.90
25302;DHT22;13243;50.888;4.724;2022-12-07T04:28:01;4.60;99.90
25302;DHT22;13243;50.888;4.724;2022-12-07T04:33:03;4.50;99.90
25302;DHT22;13243;50.888;4.724;2022-12-07T04:38:05;4.30;99.90
25302;DHT22;13243;50.888;4.724;2022-12-07T04:43:07;4.10;99.90
25302;DHT22;13243;50.888;4.724;2022-12-07T04:48:09;4.00;99.90
25302;DHT22;13243;50.888;4.724;2022-12-07T04:53:11;3.80;99.90
25302;DHT22;13243;50.888;4.724;2022-12-07T04:58:13;4.10;99.90
25302;DHT22;13243;50.888;4.724;2022-12-07T05:03:15;4.20;99.90
25302;DHT22;13243;50.888;4.724;2022-12-07T05:08:17;4.10;99.90
25302;DHT22;13243;50.888;4.724;2022-12-07T05:13:19;3.90;99.90
25302;DHT22;13243;50.888;4.724;2022-12-07T05:18:21;4.00;99.90
25302;DHT22;13243;50.888;4.724;2022-12-07T05:23:23;3.90;99.90
25302;DHT22;13243;50.888;4.724;2022-12-07T05:28:25;4.00;99.90
25302;DHT22;13243;50.888;4.724;2022-12-07T05:33:27;3.90;99.90
25302;DHT22;13243;50.888;4.724;2022-12-07T05:38:29;4.10;99.90
25302;DHT22;13243;50.888;4.724;2022-12-07T05:43:31;4.20;99.90
25302;DHT22;13243;50.888;4.724;2022-12-07T05:48:32;4.20;99.90
25302;DHT22;13243;50.888;4.724;2022-12-07T05:53:34;4.40;99.90
25302;DHT22;13243;50.888;4.724;2022-12-07T05:58:36;4.50;99.90
25302;DHT22;13243;50.888;4.724;2022-12-07T06:03:56;4.40;99.90
25302;DHT22;13243;50.888;4.724;2022-12-07T06:08:58;4.50;99.90
25302;DHT22;13243;50.888;4.724;2022-12-07T06:14:00;4.50;99.90
25302;DHT22;13243;50.888;4.724;2022-12-07T06:19:02;4.40;99.90
25302;DHT22;13243;50.888;4.724;2022-12-07T06:24:04;4.30;99.90
25302;DHT22;13243;50.888;4.724;2022-12-07T06:29:06;4.40;99.90
25302;DHT22;13243;50.888;4.724;2022-12-07T06:34:18;4.40;99.90
25302;DHT22;13243;50.888;4.724;2022-12-07T06:39:23;4.40;99.90
25302;DHT22;13243;50.888;4.724;2022-12-07T06:44:25;4.50;99.90
25302;DHT22;13243;50.888;4.724;2022-12-07T06:49:27;4.50;99.90
25302;DHT22;13243;50.888;4.724;2022-12-07T06:54:29;4.40;99.90
25302;DHT22;13243;50.888;4.724;2022-12-07T06:59:31;4.20;99.90
25302;DHT22;13243;50.888;4.724;2022-12-07T07:04:33;4.20;99.90
25302;DHT22;13243;50.888;4.724;2022-12-07T07:09:35;4.10;99.90
25302;DHT22;13243;50.888;4.724;2022-12-07T07:14:37;4.10;99.90
25302;DHT22;13243;50.888;4.724;2022-12-07T07:19:38;4.10;99.90
25302;DHT22;13243;50.888;4.724;2022-12-07T07:24:40;4.40;99.90
25302;DHT22;13243;50.888;4.724;2022-12-07T07:29:42;4.30;99.90
25302;DHT22;13243;50.888;4.724;2022-12-07T07:34:44;4.30;99.90
25302;DHT22;13243;50.888;4.724;2022-12-07T07:39:46;4.40;99.90
25302;DHT22;13243;50.888;4.724;2022-12-07T07:44:48;4.50;99.90
25302;DHT22;13243;50.888;4.724;2022-12-07T07:49:49;4.50;99.90
25302;DHT22;13243;50.888;4.724;2022-12-07T07:54:51;4.60;99.90
25302;DHT22;13243;50.888;4.724;2022-12-07T07:59:53;4.60;99.90
25302;DHT22;13243;50.888;4.724;2022-12-07T08:04:55;4.30;99.90
25302;DHT22;13243;50.888;4.724;2022-12-07T08:09:57;4.50;99.90
25302;DHT22;13243;50.888;4.724;2022-12-07T08:14:59;4.40;99.90
25302;DHT22;13243;50.888;4.724;2022-12-07T08:20:00;4.40;99.90
25302;DHT22;13243;50.888;4.724;2022-12-07T08:25:03;4.30;99.90
25302;DHT22;13243;50.888;4.724;2022-12-07T08:30:05;4.00;99.90
25302;DHT22;13243;50.888;4.724;2022-12-07T08:35:08;4.10;99.90
25302;DHT22;13243;50.888;4.724;2022-12-07T08:40:11;4.30;99.90
25302;DHT22;13243;50.888;4.724;2022-12-07T08:45:17;4.50;99.90
25302;DHT22;13243;50.888;4.724;2022-12-07T08:50:27;4.70;99.90
25302;DHT22;13243;50.888;4.724;2022-12-07T08:55:29;4.90;99.90
25302;DHT22;13243;50.888;4.724;2022-12-07T09:00:31;5.00;99.90
25302;DHT22;13243;50.888;4.724;2022-12-07T09:05:33;5.10;99.90
25302;DHT22;13243;50.888;4.724;2022-12-07T09:10:35;5.20;99.90
25302;DHT22;13243;50.888;4.724;2022-12-07T09:15:37;5.10;99.90
25302;DHT22;13243;50.888;4.724;2022-12-07T09:20:39;4.90;99.90
25302;DHT22;13243;50.888;4.724;2022-12-07T09:25:41;5.00;99.90
25302;DHT22;13243;50.888;4.724;2022-12-07T09:30:49;5.10;99.90
25302;DHT22;13243;50.888;4.724;2022-12-07T09:36:11;5.20;99.90
25302;DHT22;13243;50.888;4.724;2022-12-07T09:41:20;5.20;99.90
25302;DHT22;13243;50.888;4.724;2022-12-07T09:46:22;5.30;99.90
25302;DHT22;13243;50.888;4.724;2022-12-07T09:51:24;5.50;99.90
25302;DHT22;13243;50.888;4.724;2022-12-07T09:56:29;5.60;99.90
25302;DHT22;13243;50.888;4.724;2022-12-07T10:01:33;5.70;99.90
25302;DHT22;13243;50.888;4.724;2022-12-07T10:06:36;5.70;99.90
25302;DHT22;13243;50.888;4.724;2022-12-07T10:12:06;5.80;99.90
25302;DHT22;13243;50.888;4.724;2022-12-07T10:22:30;5.90;99.90
25302;DHT22;13243;50.888;4.724;2022-12-07T10:27:33;5.90;99.90
25302;DHT22;13243;50.888;4.724;2022-12-07T10:32:36;6.00;99.90
25302;DHT22;13243;50.888;4.724;2022-12-07T10:37:41;6.00;99.90
25302;DHT22;13243;50.888;4.724;2022-12-07T10:48:10;6.20;99.90
25302;DHT22;13243;50.888;4.724;2022-12-07T11:25:44;6.40;99.90
25302;DHT22;13243;50.888;4.724;2022-12-07T11:31:20;6.40;99.90
25302;DHT22;13243;50.888;4.724;2022-12-07T11:36:37;6.30;99.90
25302;DHT22;13243;50.888;4.724;2022-12-07T11:41:42;6.50;99.90
25302;DHT22;13243;50.888;4.724;2022-12-07T11:51:56;6.80;99.90
25302;DHT22;13243;50.888;4.724;2022-12-07T11:57:04;6.60;99.90
25302;DHT22;13243;50.888;4.724;2022-12-07T12:02:13;6.70;99.90
25302;DHT22;13243;50.888;4.724;2022-12-07T12:07:23;6.90;99.90
25302;DHT22;13243;50.888;4.724;2022-12-07T12:18:36;7.30;99.90
25302;DHT22;13243;50.888;4.724;2022-12-07T12:23:54;7.20;99.90
25302;DHT22;13243;50.888;4.724;2022-12-07T12:28:59;7.00;99.90
25302;DHT22;13243;50.888;4.724;2022-12-07T12:34:04;7.00;99.90
25302;DHT22;13243;50.888;4.724;2022-12-07T12:39:25;7.00;99.90
25302;DHT22;13243;50.888;4.724;2022-12-07T12:49:37;6.90;99.90
25302;DHT22;13243;50.888;4.724;2022-12-07T12:54:59;6.80;99.90
25302;DHT22;13243;50.888;4.724;2022-12-07T13:00:17;7.00;99.90
25302;DHT22;13243;50.888;4.724;2022-12-07T13:05:24;7.20;99.90
25302;DHT22;13243;50.888;4.724;2022-12-07T13:15:41;7.30;99.90
25302;DHT22;13243;50.888;4.724;2022-12-07T13:20:49;7.80;99.90
25302;DHT22;13243;50.888;4.724;2022-12-07T13:31:25;8.10;99.90
25302;DHT22;13243;50.888;4.724;2022-12-07T13:36:37;8.20;99.90
25302;DHT22;13243;50.888;4.724;2022-12-07T13:41:42;7.90;99.90
25302;DHT22;13243;50.888;4.724;2022-12-07T13:51:55;7.40;99.90
25302;DHT22;13243;50.888;4.724;2022-12-07T13:57:08;7.30;99.90
25302;DHT22;13243;50.888;4.724;2022-12-07T14:02:27;7.10;99.90
25302;DHT22;13243;50.888;4.724;2022-12-07T14:07:34;7.10;99.90
25302;DHT22;13243;50.888;4.724;2022-12-07T14:12:37;7.20;99.90
25302;DHT22;13243;50.888;4.724;2022-12-07T14:17:53;7.10;99.90
25302;DHT22;13243;50.888;4.724;2022-12-07T14:22:56;7.00;99.90
25302;DHT22;13243;50.888;4.724;2022-12-07T14:27:59;7.00;99.90
25302;DHT22;13243;50.888;4.724;2022-12-07T14:33:05;7.00;99.90
25302;DHT22;13243;50.888;4.724;2022-12-07T14:38:09;6.90;99.90
25302;DHT22;13243;50.888;4.724;2022-12-07T14:43:13;6.80;99.90
25302;DHT22;13243;50.888;4.724;2022-12-07T14:48:16;6.80;99.90
25302;DHT22;13243;50.888;4.724;2022-12-07T14:53:41;6.50;99.90
25302;DHT22;13243;50.888;4.724;2022-12-07T14:58:44;6.40;99.90
25302;DHT22;13243;50.888;4.724;2022-12-07T15:03:46;6.30;99.90
25302;DHT22;13243;50.888;4.724;2022-12-07T15:08:48;6.30;99.90
25302;DHT22;13243;50.888;4.724;2022-12-07T15:13:49;6.20;99.90
25302;DHT22;13243;50.888;4.724;2022-12-07T15:19:13;6.20;99.90
25302;DHT22;13243;50.888;4.724;2022-12-07T15:24:31;6.10;99.90
25302;DHT22;13243;50.888;4.724;2022-12-07T15:29:32;6.00;99.90
25302;DHT22;13243;50.888;4.724;2022-12-07T15:34:34;5.80;99.90
25302;DHT22;13243;50.888;4.724;2022-12-07T15:39:40;5.80;99.90
25302;DHT22;13243;50.888;4.724;2022-12-07T15:44:42;5.70;99.90
25302;DHT22;13243;50.888;4.724;2022-12-07T15:50:05;5.80;99.90
25302;DHT22;13243;50.888;4.724;2022-12-07T15:55:09;5.80;99.90
25302;DHT22;13243;50.888;4.724;2022-12-07T16:00:12;5.80;99.90
25302;DHT22;13243;50.888;4.724;2022-12-07T16:05:14;5.70;99.90
25302;DHT22;13243;50.888;4.724;2022-12-07T16:10:16;5.70;99.90
25302;DHT22;13243;50.888;4.724;2022-12-07T16:15:18;5.80;99.90
25302;DHT22;13243;50.888;4.724;2022-12-07T16:20:25;5.70;99.90
25302;DHT22;13243;50.888;4.724;2022-12-07T16:25:33;5.80;99.90
25302;DHT22;13243;50.888;4.724;2022-12-07T16:30:35;5.80;99.90
25302;DHT22;13243;50.888;4.724;2022-12-07T16:35:40;5.80;99.90
25302;DHT22;13243;50.888;4.724;2022-12-07T16:40:42;5.80;99.90
25302;DHT22;13243;50.888;4.724;2022-12-07T16:45:46;5.80;99.90
25302;DHT22;13243;50.888;4.724;2022-12-07T16:50:49;5.70;99.90
25302;DHT22;13243;50.888;4.724;2022-12-07T16:55:52;5.70;99.90
25302;DHT22;13243;50.888;4.724;2022-12-07T17:00:54;5.70;99.90
25302;DHT22;13243;50.888;4.724;2022-12-07T17:05:56;5.80;99.90
25302;DHT22;13243;50.888;4.724;2022-12-07T17:10:58;5.70;99.90
25302;DHT22;13243;50.888;4.724;2022-12-07T17:16:02;5.70;99.90
25302;DHT22;13243;50.888;4.724;2022-12-07T17:21:08;5.70;99.90
25302;DHT22;13243;50.888;4.724;2022-12-07T17:26:16;5.70;99.90
25302;DHT22;13243;50.888;4.724;2022-12-07T17:31:20;5.60;99.90
25302;DHT22;13243;50.888;4.724;2022-12-07T17:36:24;5.60;99.90
25302;DHT22;13243;50.888;4.724;2022-12-07T17:41:27;5.60;99.90
25302;DHT22;13243;50.888;4.724;2022-12-07T17:46:51;5.70;99.90
25302;DHT22;13243;50.888;4.724;2022-12-07T17:51:58;5.90;99.90
25302;DHT22;13243;50.888;4.724;2022-12-07T17:57:18;5.80;99.90
25302;DHT22;13243;50.888;4.724;2022-12-07T18:02:20;5.60;99.90
25302;DHT22;13243;50.888;4.724;2022-12-07T18:07:22;5.50;99.90
25302;DHT22;13243;50.888;4.724;2022-12-07T18:12:24;5.60;99.90
25302;DHT22;13243;50.888;4.724;2022-12-07T18:17:26;5.60;99.90
25302;DHT22;13243;50.888;4.724;2022-12-07T18:22:28;5.60;99.90
25302;DHT22;13243;50.888;4.724;2022-12-07T18:27:31;5.60;99.90
25302;DHT22;13243;50.888;4.724;2022-12-07T18:32:33;5.50;99.90
25302;DHT22;13243;50.888;4.724;2022-12-07T18:37:35;5.50;99.90
25302;DHT22;13243;50.888;4.724;2022-12-07T18:42:37;5.50;99.90
25302;DHT22;13243;50.888;4.724;2022-12-07T18:47:39;5.50;99.90
25302;DHT22;13243;50.888;4.724;2022-12-07T18:52:41;5.50;99.90
25302;DHT22;13243;50.888;4.724;2022-12-07T18:57:42;5.50;99.90
25302;DHT22;13243;50.888;4.724;2022-12-07T19:02:44;5.40;99.90
25302;DHT22;13243;50.888;4.724;2022-12-07T19:07:46;5.40;99.90
25302;DHT22;13243;50.888;4.724;2022-12-07T19:12:49;5.20;99.90
25302;DHT22;13243;50.888;4.724;2022-12-07T19:17:50;5.30;99.90
25302;DHT22;13243;50.888;4.724;2022-12-07T19:22:52;5.20;99.90
25302;DHT22;13243;50.888;4.724;2022-12-07T19:27:54;5.10;99.90
25302;DHT22;13243;50.888;4.724;2022-12-07T19:32:56;5.10;99.90
25302;DHT22;13243;50.888;4.724;2022-12-07T19:37:58;5.10;99.90
25302;DHT22;13243;50.888;4.724;2022-12-07T19:43:00;5.10;99.90
25302;DHT22;13243;50.888;4.724;2022-12-07T19:48:03;5.00;99.90
25302;DHT22;13243;50.888;4.724;2022-12-07T19:53:05;5.00;99.90
25302;DHT22;13243;50.888;4.724;2022-12-07T19:58:07;5.00;99.90
25302;DHT22;13243;50.888;4.724;2022-12-07T20:03:09;5.10;99.90
25302;DHT22;13243;50.888;4.724;2022-12-07T20:08:10;5.10;99.90
25302;DHT22;13243;50.888;4.724;2022-12-07T20:13:12;5.00;99.90
25302;DHT22;13243;50.888;4.724;2022-12-07T20:18:31;5.10;99.90
25302;DHT22;13243;50.888;4.724;2022-12-07T20:23:34;5.00;99.90
25302;DHT22;13243;50.888;4.724;2022-12-07T20:28:36;5.00;99.90
25302;DHT22;13243;50.888;4.724;2022-12-07T20:33:39;5.00;99.90
25302;DHT22;13243;50.888;4.724;2022-12-07T20:38:42;5.10;99.90
25302;DHT22;13243;50.888;4.724;2022-12-07T20:43:44;5.00;99.90
25302;DHT22;13243;50.888;4.724;2022-12-07T20:48:46;5.00;99.90
25302;DHT22;13243;50.888;4.724;2022-12-07T20:53:48;5.10;99.90
25302;DHT22;13243;50.888;4.724;2022-12-07T20:58:50;5.00;99.90
25302;DHT22;13243;50.888;4.724;2022-12-07T21:03:59;5.00;99.90
25302;DHT22;13243;50.888;4.724;2022-12-07T21:09:02;5.00;99.90
25302;DHT22;13243;50.888;4.724;2022-12-07T21:14:04;5.00;99.90
25302;DHT22;13243;50.888;4.724;2022-12-07T21:19:06;5.00;99.90
25302;DHT22;13243;50.888;4.724;2022-12-07T21:24:09;5.00;99.90
25302;DHT22;13243;50.888;4.724;2022-12-07T21:29:12;5.00;99.90
25302;DHT22;13243;50.888;4.724;2022-12-07T21:34:14;5.00;99.90
25302;DHT22;13243;50.888;4.724;2022-12-07T21:39:16;5.00;99.90
25302;DHT22;13243;50.888;4.724;2022-12-07T21:44:18;5.00;99.90
25302;DHT22;13243;50.888;4.724;2022-12-07T21:49:20;5.10;99.90
25302;DHT22;13243;50.888;4.724;2022-12-07T21:54:22;5.00;99.90
25302;DHT22;13243;50.888;4.724;2022-12-07T21:59:27;5.00;99.90
25302;DHT22;13243;50.888;4.724;2022-12-07T22:04:29;5.00;99.90
25302;DHT22;13243;50.888;4.724;2022-12-07T22:09:30;4.90;99.90
25302;DHT22;13243;50.888;4.724;2022-12-07T22:14:33;4.90;99.90
25302;DHT22;13243;50.888;4.724;2022-12-07T22:19:53;5.00;99.90
25302;DHT22;13243;50.888;4.724;2022-12-07T22:24:54;5.00;99.90
25302;DHT22;13243;50.888;4.724;2022-12-07T22:29:57;4.90;99.90
25302;DHT22;13243;50.888;4.724;2022-12-07T22:34:59;4.90;99.90
25302;DHT22;13243;50.888;4.724;2022-12-07T22:40:02;4.80;99.90
25302;DHT22;13243;50.888;4.724;2022-12-07T22:45:04;4.70;99.90
25302;DHT22;13243;50.888;4.724;2022-12-07T22:50:07;4.60;99.90
25302;DHT22;13243;50.888;4.724;2022-12-07T22:55:09;4.60;99.90
25302;DHT22;13243;50.888;4.724;2022-12-07T23:00:12;4.50;99.90
25302;DHT22;13243;50.888;4.724;2022-12-07T23:05:14;4.60;99.90
25302;DHT22;13243;50.888;4.724;2022-12-07T23:10:19;4.50;99.90
25302;DHT22;13243;50.888;4.724;2022-12-07T23:15:20;4.50;99.90
25302;DHT22;13243;50.888;4.724;2022-12-07T23:20:22;4.60;99.90
25302;DHT22;13243;50.888;4.724;2022-12-07T23:25:24;4.60;99.90
25302;DHT22;13243;50.888;4.724;2022-12-07T23:30:26;4.60;99.90
25302;DHT22;13243;50.888;4.724;2022-12-07T23:35:28;4.60;99.90
25302;DHT22;13243;50.888;4.724;2022-12-07T23:40:30;4.50;99.90
25302;DHT22;13243;50.888;4.724;2022-12-07T23:45:32;4.50;99.90
25302;DHT22;13243;50.888;4.724;2022-12-07T23:50:34;4.50;99.90
25302;DHT22;13243;50.888;4.724;2022-12-07T23:55:36;4.50;99.90
